Time,TemperatureF,DewpointF,PressureIn,WindDirection,WindDirectionDegrees,WindSpeedMPH,WindSpeedGustMPH,Humidity,HourlyPrecipIn,Conditions,Clouds,dailyrainin,SoftwareType,DateUTC
2013-08-19 00:12:00,75.0,74.0,30.16,SSE,148,0.0,0.0,97,0.00,,,0.06,,2013-08-19 04:12:00,
2013-08-19 00:23:00,74.0,73.0,30.16,SSE,148,0.0,0.0,97,0.00,,,0.06,,2013-08-19 04:23:00,
2013-08-19 00:53:00,74.0,73.0,30.16,SSE,148,0.0,0.0,97,0.00,,,0.06,,2013-08-19 04:53:00,
2013-08-19 01:11:00,74.0,73.0,30.16,SSE,148,0.0,0.0,98,0.00,,,0.06,,2013-08-19 05:11:00,
2013-08-19 01:22:00,74.0,73.0,30.16,SSE,148,0.0,0.0,98,0.00,,,0.06,,2013-08-19 05:22:00,
2013-08-19 01:52:00,74.0,73.0,30.15,SSE,148,0.0,0.0,98,0.00,,,0.06,,2013-08-19 05:52:00,
2013-08-19 02:11:00,74.0,73.0,30.15,SSE,148,0.0,0.0,98,0.00,,,0.06,,2013-08-19 06:11:00,
2013-08-19 02:21:00,74.0,73.0,30.14,SSE,148,0.0,0.0,98,0.01,,,0.06,,2013-08-19 06:21:00,
2013-08-19 02:52:00,74.0,73.0,30.14,SSE,148,0.0,0.0,98,0.01,,,0.06,,2013-08-19 06:52:00,
2013-08-19 03:12:00,74.0,73.0,30.14,SSE,148,0.0,0.0,98,0.01,,,0.06,,2013-08-19 07:12:00,
2013-08-19 03:21:00,74.0,73.0,30.13,SSE,148,0.0,1.0,98,0.00,,,0.04,,2013-08-19 07:21:00,
2013-08-19 03:52:00,74.0,73.0,30.13,NW,326,0.0,2.0,98,0.00,,,0.04,,2013-08-19 07:52:00,
2013-08-19 04:11:00,74.0,73.0,30.12,NNW,328,0.0,1.0,98,0.00,,,0.04,,2013-08-19 08:11:00,
2013-08-19 04:21:00,74.0,73.0,30.11,ENE,64,1.0,1.0,98,0.00,,,0.04,,2013-08-19 08:21:00,
2013-08-19 04:52:00,73.0,72.0,30.11,North,352,0.0,1.0,98,0.00,,,0.04,,2013-08-19 08:52:00,
2013-08-19 05:11:00,73.0,72.0,30.11,NNE,17,1.0,1.0,98,0.00,,,0.04,,2013-08-19 09:11:00,
2013-08-19 05:22:00,73.0,72.0,30.11,East,83,0.0,3.0,98,0.00,,,0.04,,2013-08-19 09:22:00,
2013-08-19 05:53:00,73.0,72.0,30.10,ENE,61,0.0,1.0,98,0.00,,,0.04,,2013-08-19 09:53:00,
2013-08-19 06:23:00,73.0,72.0,30.11,NE,48,0.0,0.0,98,0.00,,,0.04,,2013-08-19 10:23:00,
2013-08-19 06:52:00,72.0,71.0,30.11,NE,48,0.0,0.0,98,0.18,,,0.22,,2013-08-19 10:52:00,
2013-08-19 07:22:00,72.0,71.0,30.11,NW,319,0.0,2.0,98,0.91,,,0.95,,2013-08-19 11:22:00,
2013-08-19 07:52:00,72.0,71.0,30.12,NE,44,1.0,2.0,98,0.94,,,1.17,,2013-08-19 11:52:00,
2013-08-19 08:11:00,72.0,71.0,30.12,NE,43,1.0,1.0,98,0.77,,,1.19,,2013-08-19 12:11:00,
2013-08-19 08:21:00,72.0,71.0,30.12,NNE,13,1.0,1.0,98,0.20,,,1.19,,2013-08-19 12:21:00,
2013-08-19 08:52:00,72.0,71.0,30.12,ENE,58,1.0,2.0,98,0.05,,,1.22,,2013-08-19 12:52:00,
2013-08-19 09:22:00,72.0,71.0,30.13,East,87,0.0,1.0,98,0.12,,,1.31,,2013-08-19 13:22:00,
2013-08-19 09:42:00,72.0,71.0,30.13,NNE,18,1.0,2.0,98,0.12,,,1.32,,2013-08-19 13:42:00,
2013-08-19 09:52:00,74.0,73.0,30.13,NE,53,1.0,3.0,98,0.09,,,1.32,,2013-08-19 13:52:00,
2013-08-19 10:21:00,74.0,73.0,30.13,NNE,16,1.0,2.0,98,0.01,,,1.32,,2013-08-19 14:21:00,
2013-08-19 10:52:00,76.0,75.0,30.13,ENE,60,0.0,2.0,96,0.00,,,1.32,,2013-08-19 14:52:00,
2013-08-19 11:11:00,77.0,76.0,30.13,NW,310,0.0,2.0,96,0.00,,,1.32,,2013-08-19 15:11:00,
2013-08-19 11:22:00,79.0,76.0,30.14,North,11,0.0,2.0,91,0.00,,,1.32,,2013-08-19 15:22:00,
2013-08-19 11:54:00,82.0,77.0,30.13,ENE,64,0.0,2.0,85,0.00,,,1.32,,2013-08-19 15:54:00,
2013-08-19 12:13:00,81.0,76.0,30.13,ENE,72,0.0,1.0,85,0.00,,,1.32,,2013-08-19 16:13:00,
2013-08-19 12:23:00,81.0,77.0,30.13,NE,41,0.0,1.0,88,0.00,,,1.32,,2013-08-19 16:23:00,
2013-08-19 13:13:00,82.0,78.0,30.11,East,82,1.0,4.0,87,0.00,,,1.32,,2013-08-19 17:13:00,
2013-08-19 13:30:00,83.0,-99.9,30.11,NE,47,2.0,4.0,82,0.00,,,1.32,,2013-08-19 17:30:00,
2013-08-19 13:57:00,84.0,78.0,30.10,NE,50,1.0,4.0,83,0.00,,,1.32,,2013-08-19 17:57:00,
2013-08-19 14:19:00,83.0,78.0,30.09,NNE,23,0.0,2.0,84,0.00,,,1.32,,2013-08-19 18:19:00,
2013-08-19 14:28:00,85.0,78.0,30.09,NNE,33,2.0,4.0,79,0.00,,,1.32,,2013-08-19 18:28:00,
2013-08-19 14:50:00,-999.0,-99.9,30.09,North,354,2.0,3.0,84,0.00,,,1.32,,2013-08-19 18:50:00,
2013-08-19 15:00:00,-999.0,-99.9,30.11,East,82,0.0,2.0,92,0.36,,,1.68,,2013-08-19 19:00:00,
2013-08-19 15:16:00,77.0,75.0,30.09,East,84,0.0,1.0,95,0.56,,,1.88,,2013-08-19 19:16:00,
2013-08-19 15:30:00,-999.0,-99.9,30.11,East,79,0.0,2.0,96,0.56,,,1.88,,2013-08-19 19:30:00,
2013-08-19 15:50:00,77.0,76.0,30.09,North,4,1.0,1.0,96,0.56,,,1.88,,2013-08-19 19:50:00,
2013-08-19 15:59:00,77.0,76.0,30.09,ENE,57,1.0,1.0,96,0.20,,,1.88,,2013-08-19 19:59:00,
2013-08-19 16:20:00,77.0,76.0,30.08,ENE,70,0.0,2.0,96,0.00,,,1.88,,2013-08-19 20:20:00,
2013-08-19 16:30:00,77.0,-99.9,30.08,NE,36,0.0,1.0,96,0.00,,,1.88,,2013-08-19 20:30:00,
2013-08-19 17:00:00,-999.0,-99.9,30.08,ENE,78,0.0,2.0,-999,-99.99,,,-99.99,,2013-08-19 21:00:00,
2013-08-19 17:16:00,77.0,76.0,30.07,ENE,70,1.0,1.0,96,0.00,,,1.88,,2013-08-19 21:16:00,
2013-08-19 17:25:00,77.0,76.0,30.07,ENE,76,0.0,1.0,96,0.00,,,1.88,,2013-08-19 21:25:00,
2013-08-19 17:55:00,77.0,76.0,30.06,ESE,117,0.0,0.0,96,0.01,,,1.89,,2013-08-19 21:55:00,
2013-08-19 18:25:00,77.0,76.0,30.06,ENE,72,0.0,0.0,97,0.01,,,1.88,,2013-08-19 22:25:00,
2013-08-19 18:55:00,76.0,75.0,30.08,ENE,72,0.0,0.0,97,0.01,,,1.89,,2013-08-19 22:55:00,
2013-08-19 19:15:00,76.0,75.0,30.08,NW,325,0.0,0.0,97,0.02,,,1.90,,2013-08-19 23:15:00,
2013-08-19 19:25:00,76.0,75.0,30.08,East,95,0.0,0.0,97,0.03,,,1.89,,2013-08-19 23:25:00,
2013-08-19 19:55:00,75.0,74.0,30.09,East,95,0.0,0.0,97,0.02,,,1.89,,2013-08-19 23:55:00,
2013-08-19 20:24:00,75.0,74.0,30.09,East,95,0.0,0.0,97,0.00,,,1.89,,2013-08-20 00:24:00,
2013-08-19 20:42:00,75.0,74.0,30.09,East,94,0.0,0.0,97,0.00,,,1.89,,2013-08-20 00:42:00,
2013-08-19 20:53:00,75.0,74.0,30.08,East,95,0.0,0.0,98,0.01,,,1.90,,2013-08-20 00:53:00,
2013-08-19 21:11:00,75.0,74.0,30.09,East,94,0.0,0.0,98,0.01,,,1.90,,2013-08-20 01:11:00,
2013-08-19 21:22:00,75.0,74.0,30.09,East,95,0.0,0.0,98,0.02,,,1.91,,2013-08-20 01:22:00,
2013-08-19 21:42:00,75.0,74.0,30.09,East,95,0.0,0.0,98,0.02,,,1.91,,2013-08-20 01:42:00,
2013-08-19 21:52:00,74.0,73.0,30.09,East,95,0.0,0.0,98,0.02,,,1.92,,2013-08-20 01:52:00,
2013-08-19 22:11:00,74.0,73.0,30.10,East,95,0.0,0.0,98,0.02,,,1.92,,2013-08-20 02:11:00,
2013-08-19 22:21:00,74.0,73.0,30.10,East,95,0.0,0.0,98,0.01,,,1.92,,2013-08-20 02:21:00,
2013-08-19 22:52:00,74.0,73.0,30.10,ESE,113,0.0,0.0,98,0.00,,,1.92,,2013-08-20 02:52:00,
2013-08-19 23:22:00,74.0,73.0,30.11,ESE,113,0.0,0.0,98,0.00,,,1.92,,2013-08-20 03:22:00,
2013-08-19 23:43:00,74.0,73.0,30.11,ESE,113,0.0,0.0,98,0.00,,,1.92,,2013-08-20 03:43:00,
2013-08-19 23:54:00,74.0,73.0,30.11,ESE,113,0.0,0.0,98,0.00,,,1.92,,2013-08-20 03:54:00,